Aviation Digital Data Service (ADDS)

Output produced by METARs form (0037 UTC 17 July 2019)
found at http://www.aviationweather.gov/metar/data/
 
TAF HLLB 162300Z 1700/1724 34015KT 8000 FEW025
       
TAF HLTD 162300Z 1700/1724 07012KT CAVOK 
     BECMG 1714/1716 35012KT 
     BECMG 1721/1723 VRB02KT
       
TAF HLGT 162300Z 1700/1724 VRB02KT CAVOK 
     BECMG 1714/1716 35010KT 
     BECMG 1721/1723 06015KT
       
TAF HLKF 162300Z 1700/1724 VRB02KT CAVOK 
     BECMG 1706/1708 18010KT 
     BECMG 1718/1720 VRB02KT